Time;durP1;ratioP1;P1;durP2;ratioP2;P2;SDS_P1;SDS_P2;PMS_P1;PMS_P2;Temp;Humidity;BMP_temperature;BMP_pressure;BME280_temperature;BME280_humidity;BME280_pressure;Samples;Min_cycle;Max_cycle;Signal;HPM_P1;HPM_P2
2021/09/01 00:00:43;;;;;;;;;;;;;;;16.29;72.13;102738.25;5055130;28;19925;-46
2021/09/01 00:03:10;;;;;;;;;;;;;;;16.34;72.52;102745.00;5056361;28;19924;-47
2021/09/01 00:05:37;;;;;;;;;;;;;;;16.12;73.02;102744.59;5074431;28;19924;-48
2021/09/01 00:08:04;;;;;;;;;;;;;;;16.25;73.04;102742.91;5067551;28;19933;-44
2021/09/01 00:10:31;;;;;;;;;;;;;;;16.29;72.63;102736.50;5061212;28;19925;-48
2021/09/01 00:12:57;;;;;;;;;;;;;;;16.25;72.15;102742.06;5045327;28;19924;-46
2021/09/01 00:15:24;;;;;;;;;;;;;;;16.26;72.68;102741.13;5044667;28;19928;-46
2021/09/01 00:17:51;;;;;;;;;;;;;;;16.35;71.80;102745.88;5066636;28;19932;-45
2021/09/01 00:20:17;;;;;;;;;;;;;;;16.31;71.77;102739.03;5054632;28;19970;-48
2021/09/01 00:22:44;;;;;;;;;;;;;;;16.33;71.57;102738.00;5067535;28;19924;-49
2021/09/01 00:25:11;;;;;;;;;;;;;;;16.31;71.99;102747.00;5044934;28;20010;-44
2021/09/01 00:27:37;;;;;;;;;;;;;;;16.25;71.79;102752.66;5066852;28;20379;-49
2021/09/01 00:30:04;;;;;;;;;;;;;;;16.25;71.74;102755.31;5069506;28;19928;-48
2021/09/01 00:32:31;;;;;;;;;;;;;;;16.22;71.43;102745.72;5048412;28;20015;-47
2021/09/01 00:34:57;;;;;;;;;;;;;;;16.22;71.72;102748.38;5067303;28;20011;-45
2021/09/01 00:37:25;;;;;;;;;;;;;;;16.23;71.31;102747.44;5042475;28;20406;-46
2021/09/01 00:39:51;;;;;;;;;;;;;;;16.10;71.07;102751.78;5054517;28;19951;-47
2021/09/01 00:42:18;;;;;;;;;;;;;;;16.18;71.25;102747.75;5059780;28;19940;-48
2021/09/01 00:44:46;;;;;;;;;;;;;;;16.22;70.60;102738.66;5086566;28;19924;-47
2021/09/01 00:47:16;;;;;;;;;;;;;;;16.21;70.41;102744.03;5091199;28;19932;-45
2021/09/01 00:49:43;;;;;;;;;;;;;;;16.18;70.00;102729.16;5055639;28;19928;-45
2021/09/01 00:52:11;;;;;;;;;;;;;;;16.22;69.79;102735.13;5028545;28;20363;-46
2021/09/01 00:54:37;;;;;;;;;;;;;;;16.21;69.63;102736.06;5051211;28;19979;-47
2021/09/01 00:57:05;;;;;;;;;;;;;;;16.11;69.73;102740.22;5036222;28;19932;-45
2021/09/01 00:59:32;;;;;;;;;;;;;;;16.11;69.72;102729.59;5062324;28;19925;-46
2021/09/01 01:01:59;;;;;;;;;;;;;;;16.19;70.15;102745.94;5056102;28;19975;-50
2021/09/01 01:04:27;;;;;;;;;;;;;;;16.20;69.83;102739.69;5053766;28;19998;-50
2021/09/01 01:06:55;;;;;;;;;;;;;;;16.17;70.15;102735.41;5044579;28;19948;-46
2021/09/01 01:09:22;;;;;;;;;;;;;;;16.20;69.94;102732.56;5044967;28;20399;-46
2021/09/01 01:12:02;;;;;;;;;;;;;;;16.29;69.72;102735.63;5050013;28;19948;-47
2021/09/01 01:14:29;;;;;;;;;;;;;;;16.34;69.75;102734.38;5053574;28;19925;-47
2021/09/01 01:16:55;;;;;;;;;;;;;;;16.29;70.08;102732.97;5035960;28;19925;-44
2021/09/01 01:19:22;;;;;;;;;;;;;;;16.22;69.57;102733.34;5056211;28;19951;-48
2021/09/01 01:21:49;;;;;;;;;;;;;;;16.14;70.16;102737.38;5048299;28;19929;-47
2021/09/01 01:24:15;;;;;;;;;;;;;;;16.12;69.61;102733.97;5047976;28;19928;-47
2021/09/01 01:26:42;;;;;;;;;;;;;;;16.05;70.01;102747.59;5068536;28;19979;-47
2021/09/01 01:29:09;;;;;;;;;;;;;;;16.12;69.79;102736.63;5047141;28;19999;-46
2021/09/01 01:31:39;;;;;;;;;;;;;;;16.19;70.12;102751.22;5056581;28;19925;-49
2021/09/01 01:34:15;;;;;;;;;;;;;;;16.26;70.18;102735.81;5047984;28;20265;-49
2021/09/01 01:36:41;;;;;;;;;;;;;;;16.26;70.30;102744.59;5041560;28;20368;-50
2021/09/01 01:39:08;;;;;;;;;;;;;;;16.22;70.15;102743.09;5035218;28;19979;-51
2021/09/01 01:41:35;;;;;;;;;;;;;;;16.23;70.13;102744.81;5039882;28;20352;-48
2021/09/01 01:44:01;;;;;;;;;;;;;;;16.27;70.50;102737.53;5047260;28;20384;-49
2021/09/01 01:46:28;;;;;;;;;;;;;;;16.24;70.75;102741.22;5040730;28;19925;-48
2021/09/01 01:48:55;;;;;;;;;;;;;;;16.26;70.56;102747.25;5066650;28;19998;-49
2021/09/01 01:51:21;;;;;;;;;;;;;;;16.21;70.84;102747.56;5044582;28;19929;-50
2021/09/01 01:53:48;;;;;;;;;;;;;;;16.21;70.83;102733.41;5053329;28;19978;-49
2021/09/01 01:56:15;;;;;;;;;;;;;;;16.16;70.89;102739.00;5058632;28;19952;-50
2021/09/01 01:58:41;;;;;;;;;;;;;;;16.17;70.64;102740.72;5052825;28;20395;-45
2021/09/01 02:01:08;;;;;;;;;;;;;;;16.14;70.87;102740.91;5060417;28;19950;-54
2021/09/01 02:03:35;;;;;;;;;;;;;;;16.21;70.82;102744.03;5072414;28;20375;-54
2021/09/01 02:06:01;;;;;;;;;;;;;;;16.22;70.99;102745.72;5045656;28;19951;-54
2021/09/01 02:08:28;;;;;;;;;;;;;;;16.22;71.04;102740.44;5069997;28;19931;-54
2021/09/01 02:10:55;;;;;;;;;;;;;;;16.22;70.83;102745.72;5037980;28;20391;-55
2021/09/01 02:13:21;;;;;;;;;;;;;;;16.09;70.96;102742.09;5052457;28;19928;-55
2021/09/01 02:15:48;;;;;;;;;;;;;;;16.12;71.37;102741.94;5054772;28;19932;-55
2021/09/01 02:18:15;;;;;;;;;;;;;;;16.16;71.31;102739.00;5053823;28;20441;-53
2021/09/01 02:20:41;;;;;;;;;;;;;;;16.18;71.59;102739.78;5061425;28;20356;-54
2021/09/01 02:23:08;;;;;;;;;;;;;;;16.16;71.78;102746.13;5064278;28;19924;-55
2021/09/01 02:25:35;;;;;;;;;;;;;;;16.18;72.09;102741.56;5060081;28;19947;-55
2021/09/01 02:28:01;;;;;;;;;;;;;;;16.07;71.69;102744.84;5070456;28;19931;-55
2021/09/01 02:30:28;;;;;;;;;;;;;;;16.14;71.44;102742.69;5044685;28;19994;-45
2021/09/01 02:32:55;;;;;;;;;;;;;;;16.17;71.59;102737.19;5072693;28;19930;-46
2021/09/01 02:35:21;;;;;;;;;;;;;;;16.12;71.48;102734.81;5064275;28;19925;-49
2021/09/01 02:37:52;;;;;;;;;;;;;;;16.09;71.44;102736.78;5060890;28;20387;-47
2021/09/01 02:40:19;;;;;;;;;;;;;;;16.07;70.66;102736.88;5047401;28;19924;-49
2021/09/01 02:42:46;;;;;;;;;;;;;;;16.08;70.53;102738.59;5043514;28;19924;-48
2021/09/01 02:45:15;;;;;;;;;;;;;;;16.03;70.96;102736.22;5041981;28;19970;-49
2021/09/01 02:47:41;;;;;;;;;;;;;;;16.05;71.09;102739.63;5072366;28;19928;-47
2021/09/01 02:50:08;;;;;;;;;;;;;;;16.14;71.04;102734.72;5070026;28;19932;-46
2021/09/01 02:52:35;;;;;;;;;;;;;;;16.23;71.46;102735.03;5056066;28;20687;-46
2021/09/01 02:55:01;;;;;;;;;;;;;;;16.19;70.96;102730.84;5056875;28;19925;-47
2021/09/01 02:57:29;;;;;;;;;;;;;;;16.10;71.33;102734.06;5056406;28;19925;-47
2021/09/01 02:59:55;;;;;;;;;;;;;;;16.06;71.64;102729.88;5064666;28;19924;-50
2021/09/01 03:02:22;;;;;;;;;;;;;;;16.03;71.81;102733.56;5072014;28;20458;-49
2021/09/01 03:04:49;;;;;;;;;;;;;;;16.11;71.13;102743.72;5069817;28;20088;-46
2021/09/01 03:07:16;;;;;;;;;;;;;;;16.11;70.41;102746.38;5060252;28;19936;-51
2021/09/01 03:09:42;;;;;;;;;;;;;;;16.04;70.55;102739.72;5051936;28;19929;-46
2021/09/01 03:12:09;;;;;;;;;;;;;;;16.02;70.37;102739.81;5034149;28;19979;-48
2021/09/01 03:14:35;;;;;;;;;;;;;;;15.97;70.36;102747.19;5051934;28;20383;-46
2021/09/01 03:17:02;;;;;;;;;;;;;;;16.02;70.55;102734.50;5051909;28;19932;-47
2021/09/01 03:19:29;;;;;;;;;;;;;;;16.05;70.65;102734.31;5038096;28;19929;-44
2021/09/01 03:21:55;;;;;;;;;;;;;;;16.05;70.77;102736.13;5055661;28;20027;-48
2021/09/01 03:24:22;;;;;;;;;;;;;;;16.03;70.52;102738.88;5054500;28;19931;-44
2021/09/01 03:26:49;;;;;;;;;;;;;;;16.01;70.34;102738.09;5055657;28;19925;-45
2021/09/01 03:29:15;;;;;;;;;;;;;;;16.05;70.40;102738.78;5055535;28;19932;-46
2021/09/01 03:31:42;;;;;;;;;;;;;;;16.05;70.57;102744.94;5054385;28;19925;-46
2021/09/01 03:34:09;;;;;;;;;;;;;;;16.01;70.99;102740.75;5055407;28;19924;-46
2021/09/01 03:36:35;;;;;;;;;;;;;;;15.98;71.11;102732.09;5055532;28;20415;-49
2021/09/01 03:39:02;;;;;;;;;;;;;;;15.94;71.52;102733.22;5055434;28;19979;-46
2021/09/01 03:41:29;;;;;;;;;;;;;;;15.98;71.87;102730.31;5055434;28;20359;-46
2021/09/01 03:43:55;;;;;;;;;;;;;;;16.00;72.07;102730.22;5020889;28;19928;-45
2021/09/01 03:46:22;;;;;;;;;;;;;;;16.00;72.16;102733.72;5055448;28;19970;-46
2021/09/01 03:48:49;;;;;;;;;;;;;;;16.02;72.37;102733.63;5055240;28;19978;-46
2021/09/01 03:51:15;;;;;;;;;;;;;;;16.03;72.07;102732.69;5054925;28;20380;-45
2021/09/01 03:53:42;;;;;;;;;;;;;;;16.07;72.49;102731.56;5054894;28;19932;-48
2021/09/01 03:56:09;;;;;;;;;;;;;;;15.97;71.81;102733.91;5055026;28;19971;-48
2021/09/01 03:58:36;;;;;;;;;;;;;;;15.96;72.10;102740.16;5055225;28;19929;-47
2021/09/01 04:01:02;;;;;;;;;;;;;;;15.97;71.79;102736.56;5055156;28;19925;-49
2021/09/01 04:03:29;;;;;;;;;;;;;;;16.01;72.14;102738.09;5054866;28;19924;-49
2021/09/01 04:05:56;;;;;;;;;;;;;;;15.94;71.67;102738.53;5054875;28;19932;-48
2021/09/01 04:08:23;;;;;;;;;;;;;;;15.97;71.42;102731.25;5054776;28;19978;-46
2021/09/01 04:10:49;;;;;;;;;;;;;;;15.94;71.22;102742.06;5054972;28;20368;-51
2021/09/01 04:13:16;;;;;;;;;;;;;;;15.94;71.26;102743.84;5054805;28;19970;-47
2021/09/01 04:15:42;;;;;;;;;;;;;;;15.96;70.91;102739.31;5054480;28;19929;-47
2021/09/01 04:18:09;;;;;;;;;;;;;;;15.85;71.13;102747.88;5054259;28;19952;-47
2021/09/01 04:20:36;;;;;;;;;;;;;;;15.87;71.14;102751.31;5054239;28;19925;-47
2021/09/01 04:23:03;;;;;;;;;;;;;;;15.88;71.35;102753.00;5036372;28;19994;-46
2021/09/01 04:25:29;;;;;;;;;;;;;;;15.88;70.92;102747.69;5054314;28;19924;-45
2021/09/01 04:27:56;;;;;;;;;;;;;;;15.94;70.95;102747.38;5054156;28;19925;-50
2021/09/01 04:30:23;;;;;;;;;;;;;;;15.93;70.76;102739.50;5054096;28;19931;-48
2021/09/01 04:32:49;;;;;;;;;;;;;;;15.93;70.97;102750.13;5053196;28;19978;-47
2021/09/01 04:35:16;;;;;;;;;;;;;;;15.94;71.49;102750.03;5054466;28;19925;-46
2021/09/01 04:37:42;;;;;;;;;;;;;;;15.97;70.72;102754.28;5054393;28;19929;-45
2021/09/01 04:40:10;;;;;;;;;;;;;;;15.96;70.96;102757.88;5036967;28;19974;-46
2021/09/01 04:42:36;;;;;;;;;;;;;;;15.92;70.26;102753.69;5054290;28;20342;-46
2021/09/01 04:45:03;;;;;;;;;;;;;;;15.92;70.36;102759.84;5054011;28;20060;-46
2021/09/01 04:47:31;;;;;;;;;;;;;;;15.92;70.23;102753.69;5053013;28;19931;-49
2021/09/01 04:49:57;;;;;;;;;;;;;;;15.90;70.14;102751.13;5053872;28;19928;-47
2021/09/01 04:52:24;;;;;;;;;;;;;;;15.85;70.02;102750.53;5032776;28;20442;-49
2021/09/01 04:54:50;;;;;;;;;;;;;;;15.76;69.71;102748.38;5034146;28;19925;-47
2021/09/01 04:57:17;;;;;;;;;;;;;;;15.81;69.95;102746.34;5033910;28;19983;-47
2021/09/01 04:59:44;;;;;;;;;;;;;;;15.82;70.25;102751.56;5034062;28;20434;-48
2021/09/01 05:02:10;;;;;;;;;;;;;;;15.83;70.10;102747.97;5034482;28;20383;-48
2021/09/01 05:04:37;;;;;;;;;;;;;;;15.84;69.97;102754.13;5032880;28;19933;-48
2021/09/01 05:07:04;;;;;;;;;;;;;;;15.84;69.78;102759.44;5032522;28;19940;-45
2021/09/01 05:09:30;;;;;;;;;;;;;;;15.83;70.16;102758.59;5033721;28;19929;-44
2021/09/01 05:11:57;;;;;;;;;;;;;;;15.86;70.32;102754.91;5032539;28;19983;-45
2021/09/01 05:14:24;;;;;;;;;;;;;;;15.92;69.57;102762.50;5033713;28;19929;-51
2021/09/01 05:16:50;;;;;;;;;;;;;;;15.92;69.80;102759.84;5048818;28;19925;-46
2021/09/01 05:19:17;;;;;;;;;;;;;;;15.90;70.01;102761.75;5033468;28;19986;-45
2021/09/01 05:22:00;;;;;;;;;;;;;;;15.89;69.61;102760.88;5028279;28;19929;-50
2021/09/01 05:24:34;;;;;;;;;;;;;;;15.93;69.31;102763.38;5033417;28;20510;-46
2021/09/01 05:27:11;;;;;;;;;;;;;;;15.89;69.56;102765.34;5048721;28;19983;-46
2021/09/01 05:29:41;;;;;;;;;;;;;;;15.92;69.35;102770.47;5033333;28;19925;-46
2021/09/01 05:32:12;;;;;;;;;;;;;;;15.80;70.50;102761.44;5048595;28;20245;-45
2021/09/01 05:34:39;;;;;;;;;;;;;;;15.85;69.99;102769.97;5033391;28;20364;-45
2021/09/01 05:37:06;;;;;;;;;;;;;;;15.79;70.59;102769.41;5048353;28;20343;-45
2021/09/01 05:39:32;;;;;;;;;;;;;;;15.72;69.80;102769.78;5032903;28;19925;-45
2021/09/01 05:41:59;;;;;;;;;;;;;;;15.73;70.02;102760.00;5047751;28;19925;-43
2021/09/01 05:44:26;;;;;;;;;;;;;;;15.80;70.64;102763.22;5048361;28;20372;-47
2021/09/01 05:46:52;;;;;;;;;;;;;;;15.81;70.67;102764.94;5031933;28;20324;-45
2021/09/01 05:49:20;;;;;;;;;;;;;;;15.97;70.11;102759.59;5048080;28;19925;-45
2021/09/01 05:51:47;;;;;;;;;;;;;;;15.88;70.11;102763.63;5043512;28;19986;-46
2021/09/01 05:54:14;;;;;;;;;;;;;;;15.93;70.22;102769.53;5051599;28;19925;-48
2021/09/01 05:56:40;;;;;;;;;;;;;;;15.94;70.84;102771.25;5034486;28;19925;-49
2021/09/01 05:59:11;;;;;;;;;;;;;;;15.82;69.84;102775.44;5050830;28;19925;-49
2021/09/01 06:01:39;;;;;;;;;;;;;;;15.82;70.53;102769.28;5052954;28;20395;-48
2021/09/01 06:04:07;;;;;;;;;;;;;;;15.89;70.50;102776.78;5052521;28;19932;-50
2021/09/01 06:06:38;;;;;;;;;;;;;;;15.85;70.55;102774.41;5051445;28;19940;-48
2021/09/01 06:09:06;;;;;;;;;;;;;;;15.88;70.62;102775.09;5052597;28;20352;-46
2021/09/01 06:11:33;;;;;;;;;;;;;;;15.88;69.73;102769.81;5052677;28;19925;-48
2021/09/01 06:13:59;;;;;;;;;;;;;;;15.86;69.26;102771.69;5051265;28;20401;-45
2021/09/01 06:16:26;;;;;;;;;;;;;;;15.89;69.45;102774.16;5052513;28;19925;-48
2021/09/01 06:18:53;;;;;;;;;;;;;;;15.89;68.71;102774.16;5052539;28;20011;-45
2021/09/01 06:21:19;;;;;;;;;;;;;;;15.91;68.51;102774.09;5052098;28;19951;-45
2021/09/01 06:23:46;;;;;;;;;;;;;;;15.96;68.37;102777.31;5052684;28;19925;-46
2021/09/01 06:26:12;;;;;;;;;;;;;;;15.97;68.52;102773.72;5052544;28;20367;-44
2021/09/01 06:28:43;;;;;;;;;;;;;;;15.91;68.51;102778.50;5052530;28;19932;-45
2021/09/01 06:31:10;;;;;;;;;;;;;;;15.92;68.24;102780.22;5051697;28;19925;-45
2021/09/01 06:33:37;;;;;;;;;;;;;;;15.96;68.42;102784.41;5051759;28;20391;-48
2021/09/01 06:36:03;;;;;;;;;;;;;;;16.01;68.84;102787.66;5051870;28;19964;-46
2021/09/01 06:38:30;;;;;;;;;;;;;;;15.98;68.47;102788.69;5052161;28;19994;-49
2021/09/01 06:40:57;;;;;;;;;;;;;;;15.99;68.13;102792.19;5052069;28;19932;-47
2021/09/01 06:43:23;;;;;;;;;;;;;;;15.94;68.27;102797.78;5052345;28;19924;-48
2021/09/01 06:45:50;;;;;;;;;;;;;;;15.91;68.55;102792.66;5052143;28;19925;-54
2021/09/01 06:48:17;;;;;;;;;;;;;;;15.89;67.03;102802.50;5052508;28;19925;-54
2021/09/01 06:50:43;;;;;;;;;;;;;;;15.95;65.96;102790.66;5051799;28;19925;-55
2021/09/01 06:53:12;;;;;;;;;;;;;;;16.01;66.11;102801.78;5055628;28;19925;-54
2021/09/01 06:55:39;;;;;;;;;;;;;;;16.07;66.58;102805.03;5056102;28;19954;-52
2021/09/01 06:58:19;;;;;;;;;;;;;;;16.08;65.58;102802.28;5038335;28;19932;-54
2021/09/01 07:00:46;;;;;;;;;;;;;;;16.08;65.89;102793.47;5055101;28;20308;-53
2021/09/01 07:03:13;;;;;;;;;;;;;;;16.04;65.63;102798.94;5054850;28;20032;-54
2021/09/01 07:05:39;;;;;;;;;;;;;;;16.09;66.24;102798.69;5055868;28;19975;-53
2021/09/01 07:08:10;;;;;;;;;;;;;;;16.17;66.54;102798.22;5055871;28;19925;-54
2021/09/01 07:10:36;;;;;;;;;;;;;;;16.23;66.72;102798.72;5055746;28;19924;-53
2021/09/01 07:13:03;;;;;;;;;;;;;;;16.25;66.74;102803.94;5055834;28;19977;-54
2021/09/01 07:15:30;;;;;;;;;;;;;;;16.32;66.90;102800.00;5055738;28;19925;-52
2021/09/01 07:17:56;;;;;;;;;;;;;;;16.39;66.53;102805.81;5055613;28;19924;-53
2021/09/01 07:20:23;;;;;;;;;;;;;;;16.40;66.27;102802.19;5055581;28;19933;-53
2021/09/01 07:22:50;;;;;;;;;;;;;;;16.34;66.79;102806.06;5055731;28;20380;-54
2021/09/01 07:25:17;;;;;;;;;;;;;;;16.40;66.13;102799.53;5055688;28;19925;-52
2021/09/01 07:27:43;;;;;;;;;;;;;;;16.48;67.17;102807.06;5037576;28;19929;-52
2021/09/01 07:30:10;;;;;;;;;;;;;;;16.41;66.36;102809.22;5055260;28;19932;-53
2021/09/01 07:32:37;;;;;;;;;;;;;;;16.45;66.57;102805.44;5054928;28;19925;-53
2021/09/01 07:35:03;;;;;;;;;;;;;;;16.51;66.15;102804.22;5055431;28;19925;-54
2021/09/01 07:37:31;;;;;;;;;;;;;;;16.49;65.74;102806.97;5054221;28;20043;-55
2021/09/01 07:39:58;;;;;;;;;;;;;;;16.61;66.08;102810.69;5055266;28;19924;-54
2021/09/01 07:42:24;;;;;;;;;;;;;;;16.55;65.54;102814.59;5037178;28;20018;-53
2021/09/01 07:44:51;;;;;;;;;;;;;;;16.73;66.01;102814.44;5055357;28;20268;-52
2021/09/01 07:47:18;;;;;;;;;;;;;;;16.82;65.62;102816.50;5053895;28;19924;-54
2021/09/01 07:49:44;;;;;;;;;;;;;;;16.83;64.92;102817.38;5037473;28;19932;-53
2021/09/01 07:52:13;;;;;;;;;;;;;;;16.81;64.80;102832.56;5055185;28;19988;-54
2021/09/01 07:54:39;;;;;;;;;;;;;;;16.87;64.70;102827.72;5055041;28;20292;-52
2021/09/01 07:57:06;;;;;;;;;;;;;;;17.00;64.49;102834.97;5055251;28;20445;-54
2021/09/01 07:59:32;;;;;;;;;;;;;;;17.05;64.51;102831.09;5054855;28;19932;-54
2021/09/01 08:01:59;;;;;;;;;;;;;;;17.13;64.74;102832.44;5054753;28;19925;-54
2021/09/01 08:04:26;;;;;;;;;;;;;;;17.20;63.58;102847.06;5054014;28;19931;-53
2021/09/01 08:06:53;;;;;;;;;;;;;;;17.27;63.34;102844.88;5055051;28;20002;-54
2021/09/01 08:09:20;;;;;;;;;;;;;;;17.23;63.24;102844.19;5054716;28;19925;-55
2021/09/01 08:11:47;;;;;;;;;;;;;;;17.39;63.60;102855.59;5054729;28;19925;-54
2021/09/01 08:14:14;;;;;;;;;;;;;;;17.34;62.82;102857.69;5054733;28;20361;-55
2021/09/01 08:16:41;;;;;;;;;;;;;;;17.39;63.06;102855.59;5054609;28;19925;-55
2021/09/01 08:19:07;;;;;;;;;;;;;;;17.49;63.22;102857.66;5037045;28;19925;-55
2021/09/01 08:21:34;;;;;;;;;;;;;;;17.60;62.81;102855.22;5020269;28;19970;-55
2021/09/01 08:24:01;;;;;;;;;;;;;;;17.59;62.33;102858.81;5053268;28;19929;-54
2021/09/01 08:26:27;;;;;;;;;;;;;;;17.62;62.16;102857.78;5054394;28;19933;-55
2021/09/01 08:28:54;;;;;;;;;;;;;;;17.71;62.01;102860.69;5054622;28;19925;-46
2021/09/01 08:31:21;;;;;;;;;;;;;;;17.71;62.69;102859.81;5052953;28;20020;-46
2021/09/01 08:33:48;;;;;;;;;;;;;;;17.79;63.11;102859.34;5053103;28;20499;-48
2021/09/01 08:36:18;;;;;;;;;;;;;;;17.90;62.16;102865.69;5037128;28;19925;-47
2021/09/01 08:38:44;;;;;;;;;;;;;;;17.94;61.63;102866.34;5054360;28;20318;-48
2021/09/01 08:41:11;;;;;;;;;;;;;;;17.87;60.99;102871.22;5054127;28;19932;-49
2021/09/01 08:43:38;;;;;;;;;;;;;;;17.87;61.32;102868.56;5052920;28;20429;-44
2021/09/01 08:46:05;;;;;;;;;;;;;;;17.95;60.63;102865.41;5054169;28;20368;-44
2021/09/01 08:48:31;;;;;;;;;;;;;;;18.04;61.60;102867.47;5052312;28;19968;-45
2021/09/01 08:50:58;;;;;;;;;;;;;;;17.95;60.34;102865.41;5035649;28;20372;-47
2021/09/01 08:53:25;;;;;;;;;;;;;;;17.98;60.98;102862.53;5053557;28;19932;-47
2021/09/01 08:55:51;;;;;;;;;;;;;;;18.06;60.71;102868.25;5053267;28;19936;-44
2021/09/01 08:58:18;;;;;;;;;;;;;;;18.21;60.93;102871.69;5053879;28;20789;-49
2021/09/01 09:00:45;;;;;;;;;;;;;;;18.30;59.33;102869.41;5054030;28;20244;-49
2021/09/01 09:03:12;;;;;;;;;;;;;;;18.36;60.25;102869.81;5053813;28;19972;-47
2021/09/01 09:05:39;;;;;;;;;;;;;;;18.37;59.67;102868.03;5052588;28;19924;-48
2021/09/01 09:08:07;;;;;;;;;;;;;;;18.47;59.40;102868.25;5035699;28;19932;-48
2021/09/01 09:10:38;;;;;;;;;;;;;;;18.50;59.78;102870.72;5053625;28;19987;-48
2021/09/01 09:13:06;;;;;;;;;;;;;;;18.57;59.74;102866.69;5052229;28;19929;-47
2021/09/01 09:15:32;;;;;;;;;;;;;;;18.60;59.67;102863.81;5053265;28;19929;-51
2021/09/01 09:18:00;;;;;;;;;;;;;;;18.63;60.03;102863.59;5035664;28;19925;-46
2021/09/01 09:20:27;;;;;;;;;;;;;;;18.81;60.53;102863.31;5053424;28;19924;-47
2021/09/01 09:22:54;;;;;;;;;;;;;;;18.83;59.02;102864.03;5051828;28;20380;-51
2021/09/01 09:25:25;;;;;;;;;;;;;;;18.79;59.42;102858.09;5053115;28;19929;-48
2021/09/01 09:27:54;;;;;;;;;;;;;;;18.91;58.86;102857.28;5053249;28;19929;-49
2021/09/01 09:30:21;;;;;;;;;;;;;;;19.00;58.37;102861.09;5051873;28;19978;-48
2021/09/01 09:32:54;;;;;;;;;;;;;;;19.13;56.51;102861.13;5053082;28;19924;-49
2021/09/01 09:35:20;;;;;;;;;;;;;;;19.25;56.81;102864.72;5053006;28;19924;-46
2021/09/01 09:38:02;;;;;;;;;;;;;;;19.31;57.33;102863.47;5053032;28;19925;-46
2021/09/01 09:40:29;;;;;;;;;;;;;;;19.38;55.09;102864.72;5053120;28;20330;-46
2021/09/01 09:42:56;;;;;;;;;;;;;;;19.36;56.61;102867.50;5051644;28;19932;-46
2021/09/01 09:45:24;;;;;;;;;;;;;;;19.45;57.30;102865.97;5051700;28;19929;-49
2021/09/01 09:47:52;;;;;;;;;;;;;;;19.46;54.46;102862.34;5052857;28;19924;-47
2021/09/01 09:50:19;;;;;;;;;;;;;;;19.42;55.13;102867.06;5052824;28;19974;-48
2021/09/01 09:52:45;;;;;;;;;;;;;;;19.53;56.38;102868.13;5052520;28;19924;-50
2021/09/01 09:55:16;;;;;;;;;;;;;;;19.59;56.03;102867.66;5052759;28;19951;-47
2021/09/01 09:57:53;;;;;;;;;;;;;;;19.69;55.18;102863.38;5052719;28;20256;-45
2021/09/01 10:00:21;;;;;;;;;;;;;;;19.83;54.38;102866.91;5047526;28;19929;-47
2021/09/01 10:02:48;;;;;;;;;;;;;;;19.96;54.32;102865.03;5049058;28;19928;-47
2021/09/01 10:05:16;;;;;;;;;;;;;;;20.03;54.16;102862.78;5051276;28;19963;-45
2021/09/01 10:07:44;;;;;;;;;;;;;;;20.16;53.92;102868.03;5052588;28;19924;-45
2021/09/01 10:10:11;;;;;;;;;;;;;;;20.10;53.88;102866.69;5051301;28;19932;-44
2021/09/01 10:12:41;;;;;;;;;;;;;;;20.15;54.09;102858.31;5051046;28;19962;-45
2021/09/01 10:15:09;;;;;;;;;;;;;;;20.19;55.01;102858.00;5034645;28;19925;-44
2021/09/01 10:17:39;;;;;;;;;;;;;;;20.11;53.92;102860.38;5050928;28;19948;-44
2021/09/01 10:20:07;;;;;;;;;;;;;;;20.09;54.21;102863.13;5050974;28;19978;-46
2021/09/01 10:22:33;;;;;;;;;;;;;;;20.27;55.39;102850.25;5034545;28;19931;-45
2021/09/01 10:25:00;;;;;;;;;;;;;;;20.31;54.19;102850.00;5052002;28;19928;-48
2021/09/01 10:27:29;;;;;;;;;;;;;;;20.42;54.59;102845.56;5051952;28;20014;-48
2021/09/01 10:29:59;;;;;;;;;;;;;;;20.52;53.90;102850.19;5051032;28;19928;-46
2021/09/01 10:32:41;;;;;;;;;;;;;;;20.54;54.74;102850.94;5052244;28;19932;-48
2021/09/01 10:35:12;;;;;;;;;;;;;;;20.62;53.54;102845.84;5052167;28;19924;-48
2021/09/01 10:37:45;;;;;;;;;;;;;;;20.51;54.39;102844.00;5052189;28;19931;-52
2021/09/01 10:40:13;;;;;;;;;;;;;;;20.69;53.45;102848.94;5052223;28;20022;-47
2021/09/01 10:42:46;;;;;;;;;;;;;;;20.60;54.15;102839.75;5052407;28;19924;-48
2021/09/01 10:45:16;;;;;;;;;;;;;;;20.55;53.63;102848.16;5052435;28;20388;-48
2021/09/01 10:47:49;;;;;;;;;;;;;;;20.71;54.10;102841.66;5034440;28;20384;-48
2021/09/01 10:50:19;;;;;;;;;;;;;;;20.50;53.65;102844.97;5052061;28;20399;-50
2021/09/01 10:53:07;;;;;;;;;;;;;;;20.49;53.80;102845.97;5051914;28;19925;-49
2021/09/01 10:55:46;;;;;;;;;;;;;;;20.54;54.36;102848.28;5052161;28;19947;-50
2021/09/01 10:58:13;;;;;;;;;;;;;;;20.59;53.87;102840.75;5052286;28;19924;-45
2021/09/01 11:00:40;;;;;;;;;;;;;;;20.34;54.68;102844.44;5052169;28;19925;-46
2021/09/01 11:03:07;;;;;;;;;;;;;;;20.27;55.68;102844.03;5052207;28;20586;-49
2021/09/01 11:05:34;;;;;;;;;;;;;;;20.14;55.44;102833.44;5052222;28;19958;-46
2021/09/01 11:08:01;;;;;;;;;;;;;;;20.17;55.63;102840.38;5050717;28;19929;-50
2021/09/01 11:10:29;;;;;;;;;;;;;;;20.30;54.75;102834.94;5051827;28;19925;-48
2021/09/01 11:12:56;;;;;;;;;;;;;;;20.32;54.77;102835.69;5051771;28;19947;-48
2021/09/01 11:15:23;;;;;;;;;;;;;;;20.27;55.67;102836.03;5050241;28;20323;-49
2021/09/01 11:17:50;;;;;;;;;;;;;;;20.07;54.97;102825.03;5051489;28;19931;-46
2021/09/01 11:20:16;;;;;;;;;;;;;;;20.27;55.27;102836.03;5033650;28;19931;-45
2021/09/01 11:22:43;;;;;;;;;;;;;;;20.35;55.50;102828.28;5051739;28;19929;-48
2021/09/01 11:25:11;;;;;;;;;;;;;;;20.40;55.18;102826.13;5034167;28;19925;-47
2021/09/01 11:27:38;;;;;;;;;;;;;;;20.49;55.02;102834.41;5051863;28;19978;-49
2021/09/01 11:30:06;;;;;;;;;;;;;;;20.60;54.51;102843.31;5050849;28;19929;-51
2021/09/01 11:32:35;;;;;;;;;;;;;;;20.59;55.15;102835.41;5033810;28;19932;-48
2021/09/01 11:35:03;;;;;;;;;;;;;;;20.59;54.79;102832.75;5051732;28;19979;-46
2021/09/01 11:37:31;;;;;;;;;;;;;;;20.65;54.58;102829.56;5051718;28;19929;-45
2021/09/01 11:39:58;;;;;;;;;;;;;;;20.71;53.46;102833.63;5053360;28;20449;-48
2021/09/01 11:42:47;;;;;;;;;;;;;;;20.88;53.19;102819.81;5055312;28;19931;-45
2021/09/01 11:45:14;;;;;;;;;;;;;;;20.75;52.82;102829.75;5055228;28;19925;-45
2021/09/01 11:47:42;;;;;;;;;;;;;;;20.84;55.17;102822.84;5055345;28;20425;-46
2021/09/01 11:50:09;;;;;;;;;;;;;;;20.92;52.47;102820.41;5054008;28;19931;-45
2021/09/01 11:52:35;;;;;;;;;;;;;;;21.00;52.39;102822.50;5036987;28;19925;-45
2021/09/01 11:55:03;;;;;;;;;;;;;;;21.12;52.90;102821.53;5055152;28;20023;-47
2021/09/01 11:57:31;;;;;;;;;;;;;;;21.30;53.22;102826.34;5053625;28;19925;-46
2021/09/01 11:59:58;;;;;;;;;;;;;;;21.30;52.39;102835.25;5037262;28;19963;-45
2021/09/01 12:02:25;;;;;;;;;;;;;;;21.23;52.92;102834.91;5053107;28;19925;-51
2021/09/01 12:04:52;;;;;;;;;;;;;;;21.27;52.79;102830.16;5052962;28;19925;-48
2021/09/01 12:07:30;;;;;;;;;;;;;;;21.33;52.29;102837.69;5054313;28;20390;-51
2021/09/01 12:09:58;;;;;;;;;;;;;;;21.28;52.11;102832.72;5054842;28;20307;-48
2021/09/01 12:12:54;;;;;;;;;;;;;;;21.28;50.86;102826.50;5053621;28;20376;-50
2021/09/01 12:15:21;;;;;;;;;;;;;;;21.22;51.51;102833.19;5046109;28;19929;-51
2021/09/01 12:18:06;;;;;;;;;;;;;;;21.28;51.04;102830.03;5054975;28;19956;-49
2021/09/01 12:20:34;;;;;;;;;;;;;;;21.14;51.99;102829.44;5055071;28;19925;-50
2021/09/01 12:23:12;;;;;;;;;;;;;;;21.10;52.29;102832.34;5054748;28;20371;-51
2021/09/01 12:25:39;;;;;;;;;;;;;;;21.02;52.53;102825.91;5036891;28;19924;-51
2021/09/01 12:28:14;;;;;;;;;;;;;;;21.11;53.14;102831.34;5054270;28;20395;-49
2021/09/01 12:30:41;;;;;;;;;;;;;;;21.14;53.99;102824.09;5054616;28;19925;-46
2021/09/01 12:33:11;;;;;;;;;;;;;;;20.96;53.34;102829.91;5054341;28;19931;-47
2021/09/01 12:35:38;;;;;;;;;;;;;;;20.81;54.05;102834.63;5054369;28;19924;-50
2021/09/01 12:38:06;;;;;;;;;;;;;;;20.67;54.78;102829.44;5036509;28;19928;-52